DLH4YE EDDF-EPWA
Flight info
| Callsign | DLH4YE |
|---|---|
| Flight time | 1h 22m |
| Altitude | 35000 |
| Route | SULUS7S SULUS L984 OKG DCT BALTU DCT LEGAZ DCT LAGAR DCT OKENO Q277 AGAVA AGAVA6U |
| Aircraft | A21N/M-SDE2E3FGHIRWXY/LB1 |
Departure
| Time | 2026-05-07 20:11 |
|---|---|
| Airport | Frankfurt Main Airport (EDDF) |
Arrival
| Time | 2026-05-07 21:33 |
|---|---|
| Airport | Warsaw Chopin Airport (EPWA) |
| Time | Latitude | Longitude | Altitude | Speed | Heading |
|---|---|---|---|---|---|
| 2026-05-07 19:35 | 50.04698 | 8.57095 | 361 ft | 0 kts | 115° |
| 2026-05-07 19:40 | 50.04698 | 8.57094 | 361 ft | 0 kts | 115° |
| 2026-05-07 19:53 | 50.04700 | 8.57085 | 361 ft | 4 kts | 115° |
| 2026-05-07 19:53 | 50.04712 | 8.57047 | 361 ft | 4 kts | 115° |
| 2026-05-07 19:53 | 50.04722 | 8.57015 | 362 ft | 4 kts | 133° |
| 2026-05-07 19:54 | 50.04742 | 8.57001 | 363 ft | 4 kts | 190° |
| 2026-05-07 19:54 | 50.04762 | 8.57011 | 361 ft | 1 kts | 205° |
| 2026-05-07 19:54 | 50.04765 | 8.57014 | 361 ft | 1 kts | 205° |
| 2026-05-07 19:58 | 50.04744 | 8.56999 | 363 ft | 6 kts | 205° |
| 2026-05-07 19:58 | 50.04696 | 8.56965 | 361 ft | 9 kts | 203° |
| 2026-05-07 19:59 | 50.04634 | 8.56925 | 364 ft | 11 kts | 200° |
| 2026-05-07 19:59 | 50.04557 | 8.56893 | 368 ft | 7 kts | 193° |
| 2026-05-07 19:59 | 50.04539 | 8.56887 | 364 ft | 0 kts | 193° |
| 2026-05-07 20:02 | 50.04521 | 8.56881 | 367 ft | 4 kts | 193° |
| 2026-05-07 20:02 | 50.04486 | 8.56866 | 364 ft | 6 kts | 195° |
| 2026-05-07 20:03 | 50.04435 | 8.56851 | 365 ft | 8 kts | 187° |
| 2026-05-07 20:03 | 50.04369 | 8.56836 | 365 ft | 11 kts | 191° |
| 2026-05-07 20:03 | 50.04337 | 8.56826 | 365 ft | 3 kts | 192° |
| 2026-05-07 20:03 | 50.04301 | 8.56814 | 368 ft | 7 kts | 191° |
| 2026-05-07 20:04 | 50.04266 | 8.56800 | 367 ft | 8 kts | 209° |
| 2026-05-07 20:04 | 50.04232 | 8.56723 | 363 ft | 10 kts | 252° |
| 2026-05-07 20:04 | 50.04207 | 8.56617 | 363 ft | 12 kts | 250° |
| 2026-05-07 20:04 | 50.04173 | 8.56471 | 361 ft | 16 kts | 250° |
| 2026-05-07 20:05 | 50.04134 | 8.56303 | 361 ft | 17 kts | 250° |
| 2026-05-07 20:05 | 50.04091 | 8.56123 | 360 ft | 18 kts | 249° |
| 2026-05-07 20:05 | 50.04045 | 8.55931 | 356 ft | 19 kts | 249° |
| 2026-05-07 20:05 | 50.03996 | 8.55730 | 359 ft | 20 kts | 249° |
| 2026-05-07 20:06 | 50.03945 | 8.55517 | 358 ft | 22 kts | 250° |
| 2026-05-07 20:06 | 50.03892 | 8.55292 | 362 ft | 23 kts | 250° |
| 2026-05-07 20:06 | 50.03835 | 8.55055 | 360 ft | 24 kts | 249° |
| 2026-05-07 20:06 | 50.03776 | 8.54808 | 359 ft | 25 kts | 250° |
| 2026-05-07 20:07 | 50.03714 | 8.54551 | 353 ft | 26 kts | 249° |
| 2026-05-07 20:07 | 50.03687 | 8.54439 | 351 ft | 9 kts | 249° |
| 2026-05-07 20:07 | 50.03663 | 8.54340 | 353 ft | 11 kts | 240° |
| 2026-05-07 20:07 | 50.03610 | 8.54312 | 351 ft | 4 kts | 166° |
| 2026-05-07 20:08 | 50.03581 | 8.54327 | 354 ft | 5 kts | 164° |
| 2026-05-07 20:08 | 50.03574 | 8.54331 | 353 ft | 0 kts | 159° |
| 2026-05-07 20:09 | 50.03563 | 8.54337 | 350 ft | 4 kts | 159° |
| 2026-05-07 20:09 | 50.03519 | 8.54365 | 353 ft | 8 kts | 150° |
| 2026-05-07 20:10 | 50.03535 | 8.54608 | 355 ft | 33 kts | 70° |
| 2026-05-07 20:10 | 50.03710 | 8.55337 | 357 ft | 110 kts | 69° |
| 2026-05-07 20:10 | 50.04056 | 8.56772 | 367 ft | 169 kts | 69° |
| 2026-05-07 20:10 | 50.04480 | 8.58589 | 821 ft | 178 kts | 70° |
| 2026-05-07 20:11 | 50.04883 | 8.60392 | 1648 ft | 177 kts | 70° |
| 2026-05-07 20:11 | 50.05308 | 8.62242 | 2294 ft | 187 kts | 69° |
| 2026-05-07 20:11 | 50.05774 | 8.64211 | 2911 ft | 200 kts | 68° |
| 2026-05-07 20:11 | 50.06277 | 8.66325 | 3354 ft | 224 kts | 69° |
| 2026-05-07 20:12 | 50.06803 | 8.68657 | 4095 ft | 231 kts | 70° |
| 2026-05-07 20:12 | 50.07211 | 8.71102 | 4942 ft | 237 kts | 84° |
| 2026-05-07 20:12 | 50.07091 | 8.73739 | 5530 ft | 254 kts | 99° |
| 2026-05-07 20:12 | 50.06739 | 8.76533 | 6108 ft | 270 kts | 101° |
| 2026-05-07 20:13 | 50.06367 | 8.79449 | 6867 ft | 277 kts | 101° |
| 2026-05-07 20:13 | 50.06003 | 8.82418 | 7687 ft | 281 kts | 100° |
| 2026-05-07 20:13 | 50.05768 | 8.85451 | 8522 ft | 284 kts | 90° |
| 2026-05-07 20:13 | 50.05794 | 8.88529 | 9352 ft | 287 kts | 88° |
| 2026-05-07 20:14 | 50.05856 | 8.91667 | 10146 ft | 292 kts | 88° |
| 2026-05-07 20:14 | 50.05920 | 8.94916 | 10566 ft | 310 kts | 88° |
| 2026-05-07 20:14 | 50.05981 | 8.98378 | 10868 ft | 330 kts | 88° |
| 2026-05-07 20:14 | 50.06044 | 9.02057 | 11160 ft | 349 kts | 88° |
| 2026-05-07 20:15 | 50.06106 | 9.05928 | 11455 ft | 367 kts | 88° |
| 2026-05-07 20:15 | 50.06169 | 9.09954 | 12026 ft | 376 kts | 88° |
| 2026-05-07 20:15 | 50.06231 | 9.14040 | 12724 ft | 380 kts | 88° |
| 2026-05-07 20:15 | 50.06295 | 9.18184 | 13447 ft | 385 kts | 88° |
| 2026-05-07 20:16 | 50.06354 | 9.22369 | 14128 ft | 389 kts | 89° |
| 2026-05-07 20:16 | 50.06412 | 9.26547 | 14749 ft | 393 kts | 89° |
| 2026-05-07 20:16 | 50.06469 | 9.30821 | 15392 ft | 397 kts | 89° |
| 2026-05-07 20:16 | 50.06525 | 9.35185 | 16036 ft | 400 kts | 89° |
| 2026-05-07 20:17 | 50.06580 | 9.39478 | 16663 ft | 404 kts | 89° |
| 2026-05-07 20:17 | 50.06632 | 9.43873 | 17303 ft | 408 kts | 89° |
| 2026-05-07 20:17 | 50.06682 | 9.48301 | 17933 ft | 412 kts | 89° |
| 2026-05-07 20:17 | 50.06735 | 9.52778 | 18529 ft | 415 kts | 89° |
| 2026-05-07 20:18 | 50.06785 | 9.57292 | 19076 ft | 418 kts | 89° |
| 2026-05-07 20:18 | 50.06836 | 9.61833 | 19628 ft | 421 kts | 89° |
| 2026-05-07 20:18 | 50.06885 | 9.66402 | 20176 ft | 424 kts | 89° |
| 2026-05-07 20:18 | 50.06930 | 9.71006 | 20708 ft | 427 kts | 89° |
| 2026-05-07 20:19 | 50.06975 | 9.75654 | 21240 ft | 430 kts | 89° |
| 2026-05-07 20:19 | 50.07015 | 9.80334 | 21767 ft | 433 kts | 89° |
| 2026-05-07 20:19 | 50.07053 | 9.85043 | 22283 ft | 436 kts | 89° |
| 2026-05-07 20:19 | 50.07091 | 9.89773 | 22790 ft | 439 kts | 89° |
| 2026-05-07 20:20 | 50.07129 | 9.94544 | 23295 ft | 442 kts | 89° |
| 2026-05-07 20:20 | 50.07165 | 9.99343 | 23758 ft | 445 kts | 89° |
| 2026-05-07 20:20 | 50.07199 | 10.04170 | 24171 ft | 448 kts | 89° |
| 2026-05-07 20:20 | 50.07234 | 10.09029 | 24589 ft | 450 kts | 89° |
| 2026-05-07 20:21 | 50.07267 | 10.13923 | 25016 ft | 452 kts | 89° |
| 2026-05-07 20:21 | 50.07296 | 10.18819 | 25421 ft | 455 kts | 89° |
| 2026-05-07 20:21 | 50.07322 | 10.23753 | 25820 ft | 457 kts | 89° |
| 2026-05-07 20:21 | 50.07349 | 10.28722 | 26241 ft | 459 kts | 89° |
| 2026-05-07 20:22 | 50.07373 | 10.33707 | 26644 ft | 462 kts | 89° |
| 2026-05-07 20:22 | 50.07396 | 10.38705 | 27038 ft | 464 kts | 89° |
| 2026-05-07 20:22 | 50.07420 | 10.43737 | 27426 ft | 466 kts | 89° |
| 2026-05-07 20:22 | 50.07442 | 10.48805 | 27807 ft | 467 kts | 89° |
| 2026-05-07 20:23 | 50.07461 | 10.53854 | 28306 ft | 466 kts | 89° |
| 2026-05-07 20:23 | 50.07478 | 10.58884 | 28814 ft | 464 kts | 89° |
| 2026-05-07 20:23 | 50.07489 | 10.63854 | 29329 ft | 463 kts | 89° |
| 2026-05-07 20:23 | 50.07499 | 10.68910 | 29799 ft | 462 kts | 89° |
| 2026-05-07 20:24 | 50.07511 | 10.73852 | 30235 ft | 461 kts | 89° |
| 2026-05-07 20:24 | 50.07515 | 10.78832 | 30565 ft | 461 kts | 89° |
| 2026-05-07 20:24 | 50.07518 | 10.83825 | 30874 ft | 461 kts | 89° |
| 2026-05-07 20:24 | 50.07512 | 10.88813 | 31190 ft | 461 kts | 90° |
| 2026-05-07 20:25 | 50.07511 | 10.93810 | 31490 ft | 462 kts | 90° |
| 2026-05-07 20:25 | 50.07508 | 10.98816 | 31786 ft | 462 kts | 90° |
| 2026-05-07 20:25 | 50.07504 | 11.03812 | 32071 ft | 463 kts | 90° |
| 2026-05-07 20:25 | 50.07494 | 11.08823 | 32344 ft | 463 kts | 90° |
| 2026-05-07 20:26 | 50.07483 | 11.13833 | 32615 ft | 464 kts | 90° |
| 2026-05-07 20:26 | 50.07471 | 11.18850 | 32878 ft | 464 kts | 90° |
| 2026-05-07 20:26 | 50.07460 | 11.23875 | 33138 ft | 464 kts | 90° |
| 2026-05-07 20:26 | 50.07442 | 11.28912 | 33393 ft | 465 kts | 90° |
| 2026-05-07 20:27 | 50.07422 | 11.33945 | 33634 ft | 465 kts | 90° |
| 2026-05-07 20:27 | 50.07399 | 11.38978 | 33869 ft | 466 kts | 90° |
| 2026-05-07 20:27 | 50.07373 | 11.44017 | 34082 ft | 466 kts | 90° |
| 2026-05-07 20:27 | 50.07346 | 11.49072 | 34283 ft | 467 kts | 90° |
| 2026-05-07 20:28 | 50.07320 | 11.54118 | 34469 ft | 467 kts | 90° |
| 2026-05-07 20:28 | 50.07290 | 11.59177 | 34645 ft | 467 kts | 90° |
| 2026-05-07 20:28 | 50.07257 | 11.64240 | 34831 ft | 467 kts | 91° |
| 2026-05-07 20:28 | 50.07222 | 11.69304 | 35008 ft | 468 kts | 90° |
| 2026-05-07 20:29 | 50.07193 | 11.74373 | 35111 ft | 468 kts | 90° |
| 2026-05-07 20:29 | 50.07122 | 11.84510 | 35094 ft | 468 kts | 91° |
| 2026-05-07 20:30 | 50.07042 | 11.94628 | 35079 ft | 468 kts | 91° |
| 2026-05-07 20:30 | 50.06950 | 12.04696 | 35074 ft | 468 kts | 91° |
| 2026-05-07 20:31 | 50.06844 | 12.14815 | 35073 ft | 468 kts | 91° |
| 2026-05-07 20:31 | 50.06713 | 12.24932 | 35074 ft | 468 kts | 91° |
| 2026-05-07 20:32 | 50.06576 | 12.35065 | 35066 ft | 468 kts | 91° |
| 2026-05-07 20:32 | 50.06634 | 12.45201 | 35065 ft | 468 kts | 88° |
| 2026-05-07 20:33 | 50.06925 | 12.55315 | 35061 ft | 468 kts | 88° |
| 2026-05-07 20:33 | 50.07220 | 12.65441 | 35058 ft | 468 kts | 88° |
| 2026-05-07 20:34 | 50.07499 | 12.75571 | 35056 ft | 468 kts | 88° |
| 2026-05-07 20:34 | 50.07769 | 12.85691 | 35054 ft | 468 kts | 88° |
| 2026-05-07 20:35 | 50.08038 | 12.95814 | 35051 ft | 468 kts | 88° |
| 2026-05-07 20:35 | 50.08292 | 13.05900 | 35053 ft | 468 kts | 88° |
| 2026-05-07 20:36 | 50.08535 | 13.15971 | 35054 ft | 468 kts | 88° |
| 2026-05-07 20:36 | 50.08784 | 13.26101 | 35050 ft | 468 kts | 86° |
| 2026-05-07 20:37 | 50.10285 | 13.35915 | 35048 ft | 468 kts | 64° |
| 2026-05-07 20:37 | 50.13623 | 13.44603 | 35059 ft | 468 kts | 57° |
| 2026-05-07 20:38 | 50.17099 | 13.53196 | 35055 ft | 468 kts | 58° |
| 2026-05-07 20:38 | 50.20506 | 13.61851 | 35059 ft | 468 kts | 58° |
| 2026-05-07 20:39 | 50.23908 | 13.70522 | 35054 ft | 468 kts | 58° |
| 2026-05-07 20:39 | 50.27299 | 13.79219 | 35055 ft | 468 kts | 58° |
| 2026-05-07 20:40 | 50.30697 | 13.87893 | 35054 ft | 468 kts | 58° |
| 2026-05-07 20:40 | 50.34079 | 13.96590 | 35057 ft | 468 kts | 58° |
| 2026-05-07 20:41 | 50.37456 | 14.05311 | 35053 ft | 468 kts | 58° |
| 2026-05-07 20:41 | 50.40830 | 14.14038 | 35051 ft | 468 kts | 59° |
| 2026-05-07 20:42 | 50.44190 | 14.22786 | 35050 ft | 468 kts | 59° |
| 2026-05-07 20:42 | 50.47539 | 14.31542 | 35043 ft | 468 kts | 59° |
| 2026-05-07 20:43 | 50.50892 | 14.40314 | 35039 ft | 468 kts | 59° |
| 2026-05-07 20:43 | 50.54223 | 14.49025 | 35044 ft | 468 kts | 59° |
| 2026-05-07 20:44 | 50.57565 | 14.57802 | 35048 ft | 468 kts | 59° |
| 2026-05-07 20:44 | 50.60896 | 14.66606 | 35050 ft | 468 kts | 59° |
| 2026-05-07 20:45 | 50.64219 | 14.75411 | 35051 ft | 467 kts | 59° |
| 2026-05-07 20:45 | 50.67099 | 14.84558 | 35052 ft | 467 kts | 69° |
| 2026-05-07 20:46 | 50.69398 | 14.94145 | 35050 ft | 467 kts | 70° |
| 2026-05-07 20:46 | 50.71690 | 15.03735 | 35047 ft | 467 kts | 70° |
| 2026-05-07 20:47 | 50.73989 | 15.13335 | 35043 ft | 467 kts | 70° |
| 2026-05-07 20:47 | 50.76271 | 15.22953 | 35042 ft | 468 kts | 70° |
| 2026-05-07 20:48 | 50.78531 | 15.32523 | 35046 ft | 468 kts | 70° |
| 2026-05-07 20:48 | 50.80907 | 15.42098 | 35047 ft | 468 kts | 69° |
| 2026-05-07 20:49 | 50.83362 | 15.51649 | 35053 ft | 469 kts | 69° |
| 2026-05-07 20:49 | 50.85808 | 15.61216 | 35052 ft | 469 kts | 69° |
| 2026-05-07 20:50 | 50.88243 | 15.70785 | 35054 ft | 469 kts | 69° |
| 2026-05-07 20:50 | 50.90280 | 15.78825 | 35060 ft | 469 kts | 70° |
| 2026-05-07 20:51 | 50.92685 | 15.88364 | 35057 ft | 469 kts | 70° |
| 2026-05-07 20:51 | 50.95110 | 15.97979 | 35059 ft | 470 kts | 70° |
| 2026-05-07 20:52 | 50.97528 | 16.07592 | 35064 ft | 469 kts | 70° |
| 2026-05-07 20:52 | 50.99931 | 16.17230 | 35064 ft | 469 kts | 70° |
| 2026-05-07 20:53 | 51.02324 | 16.26883 | 35064 ft | 469 kts | 70° |
| 2026-05-07 20:53 | 51.04713 | 16.36541 | 35070 ft | 470 kts | 71° |
| 2026-05-07 20:54 | 51.07097 | 16.46219 | 35072 ft | 470 kts | 71° |
| 2026-05-07 20:54 | 51.09475 | 16.55899 | 35075 ft | 470 kts | 71° |
| 2026-05-07 20:55 | 51.11837 | 16.65608 | 35078 ft | 470 kts | 71° |
| 2026-05-07 20:55 | 51.14195 | 16.75316 | 35080 ft | 470 kts | 72° |
| 2026-05-07 20:56 | 51.16528 | 16.84982 | 35082 ft | 471 kts | 72° |
| 2026-05-07 20:56 | 51.18893 | 16.94783 | 35082 ft | 471 kts | 72° |
| 2026-05-07 20:57 | 51.21215 | 17.04495 | 35079 ft | 472 kts | 72° |
| 2026-05-07 20:57 | 51.23553 | 17.14266 | 35076 ft | 472 kts | 72° |
| 2026-05-07 20:58 | 51.25885 | 17.24079 | 35071 ft | 473 kts | 73° |
| 2026-05-07 20:58 | 51.28209 | 17.33907 | 35071 ft | 472 kts | 73° |
| 2026-05-07 20:59 | 51.30517 | 17.43723 | 35066 ft | 472 kts | 73° |
| 2026-05-07 20:59 | 51.32824 | 17.53570 | 35064 ft | 472 kts | 73° |
| 2026-05-07 21:00 | 51.35125 | 17.63405 | 35064 ft | 472 kts | 73° |
| 2026-05-07 21:00 | 51.37415 | 17.73272 | 35066 ft | 472 kts | 74° |
| 2026-05-07 21:01 | 51.39688 | 17.83126 | 35061 ft | 472 kts | 74° |
| 2026-05-07 21:01 | 51.41939 | 17.92949 | 35067 ft | 472 kts | 74° |
| 2026-05-07 21:02 | 51.44208 | 18.02821 | 35065 ft | 472 kts | 75° |
| 2026-05-07 21:02 | 51.46461 | 18.12710 | 35066 ft | 472 kts | 75° |
| 2026-05-07 21:03 | 51.48711 | 18.22597 | 35063 ft | 472 kts | 75° |
| 2026-05-07 21:03 | 51.50945 | 18.32506 | 35059 ft | 472 kts | 75° |
| 2026-05-07 21:04 | 51.53174 | 18.42421 | 35062 ft | 471 kts | 75° |
| 2026-05-07 21:04 | 51.55387 | 18.52301 | 35057 ft | 470 kts | 76° |
| 2026-05-07 21:05 | 51.57001 | 18.62322 | 35053 ft | 456 kts | 91° |
| 2026-05-07 21:05 | 51.57189 | 18.72428 | 35056 ft | 451 kts | 96° |
| 2026-05-07 21:06 | 51.57270 | 18.82538 | 34783 ft | 453 kts | 95° |
| 2026-05-07 21:06 | 51.57327 | 18.87601 | 34176 ft | 451 kts | 96° |
| 2026-05-07 21:06 | 51.57384 | 18.92644 | 33389 ft | 451 kts | 96° |
| 2026-05-07 21:06 | 51.57442 | 18.97693 | 32623 ft | 452 kts | 96° |
| 2026-05-07 21:07 | 51.57497 | 19.02740 | 31860 ft | 452 kts | 96° |
| 2026-05-07 21:07 | 51.57551 | 19.07792 | 31125 ft | 452 kts | 96° |
| 2026-05-07 21:07 | 51.57602 | 19.12859 | 30400 ft | 451 kts | 96° |
| 2026-05-07 21:07 | 51.57650 | 19.17898 | 29580 ft | 450 kts | 96° |
| 2026-05-07 21:08 | 51.57698 | 19.22922 | 28781 ft | 450 kts | 96° |
| 2026-05-07 21:08 | 51.57744 | 19.27990 | 28109 ft | 453 kts | 96° |
| 2026-05-07 21:08 | 51.57788 | 19.33039 | 27470 ft | 449 kts | 96° |
| 2026-05-07 21:08 | 51.57826 | 19.37978 | 26814 ft | 445 kts | 96° |
| 2026-05-07 21:09 | 51.57863 | 19.42986 | 26139 ft | 442 kts | 96° |
| 2026-05-07 21:09 | 51.57896 | 19.47909 | 25504 ft | 438 kts | 96° |
| 2026-05-07 21:09 | 51.57926 | 19.52718 | 24876 ft | 434 kts | 95° |
| 2026-05-07 21:09 | 51.57957 | 19.57560 | 24229 ft | 431 kts | 95° |
| 2026-05-07 21:10 | 51.57984 | 19.62352 | 23580 ft | 427 kts | 95° |
| 2026-05-07 21:10 | 51.58010 | 19.67087 | 22854 ft | 421 kts | 95° |
| 2026-05-07 21:10 | 51.58036 | 19.71777 | 22191 ft | 415 kts | 95° |
| 2026-05-07 21:10 | 51.58060 | 19.76398 | 21521 ft | 410 kts | 95° |
| 2026-05-07 21:11 | 51.58080 | 19.80930 | 20901 ft | 404 kts | 94° |
| 2026-05-07 21:11 | 51.58099 | 19.85430 | 20302 ft | 398 kts | 94° |
| 2026-05-07 21:11 | 51.58129 | 19.94197 | 19205 ft | 387 kts | 94° |
| 2026-05-07 21:12 | 51.58065 | 19.98528 | 18770 ft | 395 kts | 97° |
| 2026-05-07 21:12 | 51.57924 | 20.03027 | 18478 ft | 404 kts | 97° |
| 2026-05-07 21:12 | 51.57777 | 20.07527 | 18207 ft | 403 kts | 97° |
| 2026-05-07 21:12 | 51.57632 | 20.11965 | 17929 ft | 401 kts | 97° |
| 2026-05-07 21:13 | 51.57487 | 20.16433 | 17657 ft | 399 kts | 96° |
| 2026-05-07 21:13 | 51.57340 | 20.20936 | 17384 ft | 398 kts | 96° |
| 2026-05-07 21:13 | 51.57192 | 20.25362 | 16992 ft | 395 kts | 96° |
| 2026-05-07 21:13 | 51.57044 | 20.29765 | 16524 ft | 392 kts | 96° |
| 2026-05-07 21:14 | 51.56899 | 20.34072 | 16094 ft | 389 kts | 96° |
| 2026-05-07 21:14 | 51.56752 | 20.38393 | 15706 ft | 386 kts | 95° |
| 2026-05-07 21:14 | 51.56673 | 20.42690 | 15318 ft | 384 kts | 89° |
| 2026-05-07 21:14 | 51.57141 | 20.46890 | 14939 ft | 383 kts | 73° |
| 2026-05-07 21:15 | 51.58114 | 20.50857 | 14582 ft | 380 kts | 68° |
| 2026-05-07 21:15 | 51.59156 | 20.54730 | 14226 ft | 376 kts | 67° |
| 2026-05-07 21:15 | 51.60184 | 20.58566 | 13864 ft | 373 kts | 67° |
| 2026-05-07 21:15 | 51.61201 | 20.62413 | 13478 ft | 370 kts | 67° |
| 2026-05-07 21:16 | 51.62189 | 20.66212 | 13105 ft | 367 kts | 68° |
| 2026-05-07 21:16 | 51.63164 | 20.69986 | 12747 ft | 363 kts | 68° |
| 2026-05-07 21:16 | 51.64131 | 20.73735 | 12398 ft | 360 kts | 68° |
| 2026-05-07 21:16 | 51.65079 | 20.77431 | 12073 ft | 356 kts | 68° |
| 2026-05-07 21:17 | 51.66018 | 20.81104 | 11737 ft | 353 kts | 68° |
| 2026-05-07 21:17 | 51.66942 | 20.84742 | 11414 ft | 349 kts | 67° |
| 2026-05-07 21:17 | 51.67959 | 20.88229 | 11136 ft | 337 kts | 58° |
| 2026-05-07 21:17 | 51.69438 | 20.91028 | 10920 ft | 322 kts | 36° |
| 2026-05-07 21:18 | 51.71370 | 20.92620 | 10749 ft | 305 kts | 17° |
| 2026-05-07 21:18 | 51.73357 | 20.93642 | 10506 ft | 295 kts | 15° |
| 2026-05-07 21:18 | 51.75295 | 20.94599 | 10237 ft | 288 kts | 15° |
| 2026-05-07 21:18 | 51.77219 | 20.95281 | 9930 ft | 281 kts | 0° |
| 2026-05-07 21:19 | 51.79109 | 20.94770 | 9601 ft | 274 kts | 336° |
| 2026-05-07 21:19 | 51.80777 | 20.93437 | 9312 ft | 269 kts | 329° |
| 2026-05-07 21:19 | 51.82414 | 20.92001 | 9023 ft | 266 kts | 329° |
| 2026-05-07 21:19 | 51.84038 | 20.90593 | 8755 ft | 263 kts | 330° |
| 2026-05-07 21:20 | 51.85650 | 20.89217 | 8486 ft | 260 kts | 330° |
| 2026-05-07 21:20 | 51.87244 | 20.87874 | 8221 ft | 259 kts | 330° |
| 2026-05-07 21:20 | 51.88842 | 20.86534 | 7971 ft | 258 kts | 330° |
| 2026-05-07 21:20 | 51.90430 | 20.85202 | 7710 ft | 256 kts | 331° |
| 2026-05-07 21:21 | 51.92007 | 20.83885 | 7465 ft | 252 kts | 330° |
| 2026-05-07 21:21 | 51.93532 | 20.82589 | 7288 ft | 242 kts | 330° |
| 2026-05-07 21:21 | 51.95016 | 20.81327 | 7286 ft | 241 kts | 330° |
| 2026-05-07 21:21 | 51.96544 | 20.80204 | 7346 ft | 243 kts | 343° |
| 2026-05-07 21:22 | 51.98232 | 20.80158 | 7281 ft | 247 kts | 14° |
| 2026-05-07 21:22 | 51.99712 | 20.81569 | 7151 ft | 251 kts | 46° |
| 2026-05-07 21:22 | 52.00656 | 20.83947 | 6995 ft | 252 kts | 63° |
| 2026-05-07 21:22 | 52.01407 | 20.86512 | 6796 ft | 252 kts | 64° |
| 2026-05-07 21:23 | 52.02109 | 20.89109 | 6565 ft | 251 kts | 73° |
| 2026-05-07 21:23 | 52.02222 | 20.91895 | 6342 ft | 250 kts | 103° |
| 2026-05-07 21:23 | 52.01457 | 20.94372 | 6128 ft | 246 kts | 135° |
| 2026-05-07 21:23 | 52.00077 | 20.95974 | 5941 ft | 243 kts | 154° |
| 2026-05-07 21:24 | 51.98584 | 20.97172 | 5743 ft | 242 kts | 155° |
| 2026-05-07 21:24 | 51.97057 | 20.98408 | 5526 ft | 242 kts | 154° |
| 2026-05-07 21:24 | 51.95586 | 20.99640 | 5336 ft | 241 kts | 154° |
| 2026-05-07 21:24 | 51.94107 | 21.00903 | 5132 ft | 240 kts | 153° |
| 2026-05-07 21:25 | 51.92631 | 21.02179 | 4947 ft | 240 kts | 153° |
| 2026-05-07 21:25 | 51.91154 | 21.03449 | 4786 ft | 240 kts | 153° |
| 2026-05-07 21:25 | 51.89686 | 21.04713 | 4640 ft | 239 kts | 153° |
| 2026-05-07 21:25 | 51.88374 | 21.06349 | 4498 ft | 240 kts | 126° |
| 2026-05-07 21:26 | 51.87826 | 21.08852 | 4359 ft | 240 kts | 90° |
| 2026-05-07 21:26 | 51.88252 | 21.11422 | 4241 ft | 238 kts | 60° |
| 2026-05-07 21:26 | 51.89121 | 21.13683 | 4124 ft | 232 kts | 56° |
| 2026-05-07 21:26 | 51.89990 | 21.15796 | 3977 ft | 218 kts | 51° |
| 2026-05-07 21:27 | 51.91126 | 21.17309 | 3946 ft | 212 kts | 20° |
| 2026-05-07 21:27 | 51.92556 | 21.17590 | 3838 ft | 206 kts | 347° |
| 2026-05-07 21:27 | 51.93890 | 21.16797 | 3550 ft | 207 kts | 331° |
| 2026-05-07 21:27 | 51.95142 | 21.15648 | 3315 ft | 206 kts | 328° |
| 2026-05-07 21:28 | 51.96374 | 21.14450 | 3147 ft | 206 kts | 328° |
| 2026-05-07 21:28 | 51.97609 | 21.13272 | 3005 ft | 205 kts | 329° |
| 2026-05-07 21:28 | 51.98853 | 21.12154 | 2962 ft | 204 kts | 331° |
| 2026-05-07 21:28 | 52.00105 | 21.11059 | 2971 ft | 205 kts | 331° |
| 2026-05-07 21:29 | 52.01359 | 21.09968 | 2982 ft | 205 kts | 331° |
| 2026-05-07 21:29 | 52.02615 | 21.08876 | 2990 ft | 204 kts | 331° |
| 2026-05-07 21:29 | 52.03845 | 21.07807 | 2954 ft | 199 kts | 331° |
| 2026-05-07 21:29 | 52.05009 | 21.06795 | 2806 ft | 183 kts | 332° |
| 2026-05-07 21:30 | 52.06133 | 21.05816 | 2572 ft | 183 kts | 332° |
| 2026-05-07 21:30 | 52.07232 | 21.04859 | 2327 ft | 173 kts | 333° |
| 2026-05-07 21:30 | 52.08263 | 21.03961 | 2071 ft | 164 kts | 334° |
| 2026-05-07 21:30 | 52.09257 | 21.03096 | 1834 ft | 161 kts | 333° |
| 2026-05-07 21:31 | 52.10238 | 21.02240 | 1604 ft | 160 kts | 333° |
| 2026-05-07 21:31 | 52.11183 | 21.01415 | 1384 ft | 142 kts | 333° |
| 2026-05-07 21:31 | 52.12016 | 21.00689 | 1165 ft | 133 kts | 333° |
| 2026-05-07 21:31 | 52.12824 | 20.99978 | 1011 ft | 132 kts | 333° |
| 2026-05-07 21:32 | 52.13631 | 20.99273 | 782 ft | 131 kts | 333° |
| 2026-05-07 21:32 | 52.14440 | 20.98582 | 629 ft | 131 kts | 333° |
| 2026-05-07 21:32 | 52.15243 | 20.97869 | 433 ft | 131 kts | 333° |
| 2026-05-07 21:32 | 52.16045 | 20.97167 | 365 ft | 128 kts | 333° |
| 2026-05-07 21:33 | 52.16742 | 20.96564 | 345 ft | 79 kts | 332° |
| 2026-05-07 21:33 | 52.17081 | 20.96270 | 352 ft | 50 kts | 331° |
| 2026-05-07 21:33 | 52.17261 | 20.96116 | 348 ft | 17 kts | 339° |
| 2026-05-07 21:33 | 52.17390 | 20.96067 | 344 ft | 20 kts | 354° |
| 2026-05-07 21:34 | 52.17497 | 20.96064 | 352 ft | 10 kts | 0° |
| 2026-05-07 21:34 | 52.17546 | 20.96064 | 353 ft | 11 kts | 3° |
| 2026-05-07 21:34 | 52.17651 | 20.96145 | 344 ft | 14 kts | 5° |
| 2026-05-07 21:34 | 52.17747 | 20.96084 | 344 ft | 16 kts | 332° |
| 2026-05-07 21:35 | 52.17771 | 20.96084 | 344 ft | 3 kts | 24° |
| 2026-05-07 21:35 | 52.17793 | 20.96106 | 346 ft | 5 kts | 43° |
| 2026-05-07 21:35 | 52.17817 | 20.96161 | 344 ft | 7 kts | 65° |
| 2026-05-07 21:35 | 52.17840 | 20.96247 | 350 ft | 9 kts | 74° |
| 2026-05-07 21:36 | 52.17798 | 20.96330 | 347 ft | 12 kts | 154° |
| 2026-05-07 21:36 | 52.17718 | 20.96395 | 347 ft | 14 kts | 154° |
| 2026-05-07 21:36 | 52.17627 | 20.96474 | 347 ft | 16 kts | 151° |
| 2026-05-07 21:36 | 52.17540 | 20.96553 | 346 ft | 9 kts | 152° |
| 2026-05-07 21:37 | 52.17467 | 20.96571 | 352 ft | 12 kts | 166° |
| 2026-05-07 21:37 | 52.17387 | 20.96637 | 347 ft | 14 kts | 151° |
| 2026-05-07 21:37 | 52.17296 | 20.96719 | 346 ft | 16 kts | 151° |
| 2026-05-07 21:37 | 52.17193 | 20.96808 | 352 ft | 18 kts | 152° |
| 2026-05-07 21:38 | 52.17115 | 20.96877 | 344 ft | 0 kts | 150° |
| 2026-05-07 21:38 | 52.17102 | 20.96888 | 352 ft | 5 kts | 150° |
| 2026-05-07 21:38 | 52.17071 | 20.96936 | 346 ft | 8 kts | 101° |
| 2026-05-07 21:38 | 52.17087 | 20.97015 | 349 ft | 5 kts | 75° |
| 2026-05-07 21:39 | 52.17092 | 20.97045 | 349 ft | 2 kts | 76° |
| 2026-05-07 21:39 | 52.17094 | 20.97058 | 352 ft | 1 kts | 76° |
| 2026-05-07 21:39 | 52.17094 | 20.97062 | 352 ft | 0 kts | 75° |
| 2026-05-07 21:46 | 52.17094 | 20.97061 | 352 ft | 0 kts | 75° |